Saturday, December 16, 2017, 9:28 PM EST
Back to Local

KTEB, Teterboro Airport

Location: South Hackensack, NJ, United States Lat: 40.867
Local Time: 9:28 PM EST ( 2:28 GMT) Lon: -74.05
Time Zone: US/Eastern Elev: 9 ft

Show me the last for .
Show Decoded

2017-12-16 20:51 METAR KTEB 170151Z 33007KT 10SM OVC033 03/M04 A3016 RMK AO2 SLP211 T00281044 =
2017-12-16 19:51 METAR KTEB 170051Z 32005KT 10SM OVC036 03/M04 A3014 RMK AO2 SLP204 T00281039 =
2017-12-16 18:51 METAR KTEB 162351Z 01004KT 10SM OVC039 03/M03 A3009 RMK AO2 SLP189 T00331033
                 10033 20022 53030 =
2017-12-16 17:51 METAR KTEB 162251Z 28003KT 10SM BKN049 OVC060 03/M04 A3005 RMK AO2 SLP176
                 T00331039 =
2017-12-16 16:51 METAR KTEB 162151Z 24006KT 10SM OVC055 03/M04 A3002 RMK AO2 SLP165 T00281044 =
2017-12-16 15:51 METAR KTEB 162051Z 25006KT 10SM OVC043 03/M05 A3000 RMK AO2 SLP159 T00281050
                 53005 =
2017-12-16 14:51 METAR KTEB 161951Z 25008KT 10SM BKN042 OVC055 02/M06 A2998 RMK AO2 SLP153
                 T00221056 =
2017-12-16 13:51 METAR KTEB 161851Z 24007KT 10SM OVC050 02/M06 A2998 RMK AO2 SLP152 T00221056 =
2017-12-16 12:51 METAR KTEB 161751Z 26013G19KT 10SM BKN050 BKN065 03/M06 A2998 RMK AO2 SLP153
                 60000 T00281061 10028 21056 58028 =
2017-12-16 11:51 METAR KTEB 161651Z 24011KT 10SM OVC050 01/M07 A3002 RMK AO2 SLP164 T00111067 =
2017-12-16 10:51 METAR KTEB 161551Z 21009KT 10SM OVC047 M01/M07 A3005 RMK AO2 SLP174 T10061067 =
2017-12-16 09:51 METAR KTEB 161451Z 21010KT 10SM BKN050 M01/M07 A3007 RMK AO2 UPB1355E06 SLP181
                 P0000 60000 T10111072 51018 =
2017-12-16 08:51 METAR KTEB 161351Z 19010KT 10SM BKN050 OVC110 M02/M08 A3006 RMK AO2 SLP179
                 T10221083 =
2017-12-16 07:51 METAR KTEB 161251Z 20008KT 10SM CLR M05/M09 A3004 RMK AO2 SLP172 T10501089 =
2017-12-16 06:51 METAR KTEB 161151Z 21008KT 10SM CLR M05/M09 A3001 RMK AO2 SLP163 4/001 70010
                 T10501094 11050 21083 53018 =
2017-12-16 05:51 METAR KTEB 161051Z 19007KT 10SM CLR M06/M09 A2999 RMK AO2 SLP155 T10561094 =
2017-12-16 04:51 METAR KTEB 160951Z 19006KT 10SM CLR M06/M09 A2997 RMK AO2 SLP148 T10561094 =
2017-12-16 03:51 METAR KTEB 160851Z 20007KT 10SM CLR M06/M09 A2996 RMK AO2 SLP145 T10611094 51018
                 =
2017-12-16 02:51 METAR KTEB 160751Z 20005KT 10SM CLR M06/M09 A2995 RMK AO2 SLP143 T10611094 =
2017-12-16 01:51 METAR KTEB 160651Z 24004KT 9SM CLR M07/M09 A2992 RMK AO2 SLP132 T10671089 =
2017-12-16 00:51 METAR KTEB 160551Z 23004KT 10SM CLR M06/M08 A2991 RMK AO2 SLP127 60000 T10611083
                 11044 21067 55004 =
2017-12-15 23:51 METAR KTEB 160451Z 25008KT 10SM CLR M06/M08 A2990 RMK AO2 SLP126 931003
                 T10561083 400061100 =
2017-12-15 22:51 METAR KTEB 160351Z 22007KT 10SM SCT080 M06/M08 A2991 RMK AO2 SLP130 T10561083 =
2017-12-15 21:51 METAR KTEB 160251Z 23006KT 10SM CLR M06/M08 A2992 RMK AO2 SLP131 60000 T10561083
                 53001 =

Support USWX by starting your Amazon purchase here.